Accueil
METAR-TAF:

METAR-TAF

Aéroports :

Aéroport d'Avignon-Provence

Avignon, France

latitude: 43-54-26N, longitude: 004-54-07E, altitude: 38 m

Observation

Le bulletin a été fait il y a 28 minutes, à 13:00 UTC
Vent 9 kt de sud/sud-est
Température 18°C
Humidité 45%
Pression 1020 hPa
Visibilité 10 km ou plus
pas de nuages en-dessous de 1500 mètres et pas de cumulonimbus.

METAR: LFMV 261300Z AUTO 15009KT CAVOK 18/06 Q1020 NOSIG

Heure: 14:28 (13:28 UTC)

Prévision

Le bulletin a été fait il y a 5 heures et 28 minutes, à 08:00 UTC
Prévision valable du 26 à 09 UTC au 27 à 09 UTC
Vent 10 kt de est/sud-est
Visibilité 10 km ou plus
pas de nuages en-dessous de 1500 mètres et pas de cumulonimbus.
Evoluant progressivement
du 26 à 15 UTC au 26 à 17 UTC
Nuages fragmentés à une hauteur de 4000 ft

TAF: LFMV 260800Z 2609/2709 11010KT CAVOK BECMG 2615/2617 BKN040

Observations et prévisions météorologiques de plus de 4000 aéroports (messages METAR et TAF).

Les stations disponibles sont représentées par des disques jaunes et rouges sur la carte.

Passer la souris dessus pour voir le nom de la station.

Cliquer dessus pour voir les observations et prévisions météorologiques.

Pour changer de carte: cliquez sur les boutons verts avec une croix noire pour zoomer, sur le bouton vert avec un tiret pour effectuer un zoom arrière, ou sur les flèches vertes pour les cartes adjacentes.


METAR-TAF: